sensor_id;sensor_type;location;lat;lon;timestamp;pressure;altitude;pressure_sealevel;temperature;humidity
7407;BME280;3745;56.964;24.128;2024-02-21T00:01:06;101367.19;;;1.28;100.00
7407;BME280;3745;56.964;24.128;2024-02-21T00:03:33;101269.97;;;0.73;100.00
7407;BME280;3745;56.964;24.128;2024-02-21T00:05:58;101376.13;;;1.39;100.00
7407;BME280;3745;56.964;24.128;2024-02-21T00:08:24;101361.44;;;1.29;100.00
7407;BME280;3745;56.964;24.128;2024-02-21T00:10:50;101387.00;;;1.54;100.00
7407;BME280;3745;56.964;24.128;2024-02-21T00:13:15;101338.41;;;1.20;100.00
7407;BME280;3745;56.964;24.128;2024-02-21T00:15:42;101258.66;;;0.78;100.00
7407;BME280;3745;56.964;24.128;2024-02-21T00:18:08;101204.34;;;0.44;100.00
7407;BME280;3745;56.964;24.128;2024-02-21T00:20:36;101390.41;;;1.42;100.00
7407;BME280;3745;56.964;24.128;2024-02-21T00:23:02;101330.66;;;1.01;100.00
7407;BME280;3745;56.964;24.128;2024-02-21T00:25:27;101150.09;;;-0.02;100.00
7407;BME280;3745;56.964;24.128;2024-02-21T00:27:54;101391.88;;;1.38;100.00
7407;BME280;3745;56.964;24.128;2024-02-21T00:30:19;101381.13;;;1.39;100.00
7407;BME280;3745;56.964;24.128;2024-02-21T00:32:46;101217.56;;;0.43;100.00
7407;BME280;3745;56.964;24.128;2024-02-21T00:35:11;101372.69;;;1.37;100.00
7407;BME280;3745;56.964;24.128;2024-02-21T00:37:37;101370.09;;;1.36;100.00
7407;BME280;3745;56.964;24.128;2024-02-21T00:40:04;101358.53;;;1.23;100.00
7407;BME280;3745;56.964;24.128;2024-02-21T00:42:30;101371.41;;;1.29;100.00
7407;BME280;3745;56.964;24.128;2024-02-21T00:44:56;101237.59;;;0.45;100.00
7407;BME280;3745;56.964;24.128;2024-02-21T00:47:21;101368.03;;;1.29;100.00
7407;BME280;3745;56.964;24.128;2024-02-21T00:49:47;101366.41;;;1.29;100.00
7407;BME280;3745;56.964;24.128;2024-02-21T00:52:14;101321.81;;;1.06;100.00
7407;BME280;3745;56.964;24.128;2024-02-21T00:54:40;101313.22;;;0.88;100.00
7407;BME280;3745;56.964;24.128;2024-02-21T00:57:05;101373.13;;;1.17;100.00
7407;BME280;3745;56.964;24.128;2024-02-21T00:59:31;101211.59;;;0.14;100.00
7407;BME280;3745;56.964;24.128;2024-02-21T01:01:57;101216.25;;;0.22;100.00
7407;BME280;3745;56.964;24.128;2024-02-21T01:04:23;101285.31;;;0.66;100.00
7407;BME280;3745;56.964;24.128;2024-02-21T01:06:50;101248.97;;;0.41;100.00
7407;BME280;3745;56.964;24.128;2024-02-21T01:09:15;101263.47;;;0.62;100.00
7407;BME280;3745;56.964;24.128;2024-02-21T01:11:41;101213.56;;;0.32;100.00
7407;BME280;3745;56.964;24.128;2024-02-21T01:14:07;101203.44;;;0.29;100.00
7407;BME280;3745;56.964;24.128;2024-02-21T01:16:32;101199.44;;;0.18;100.00
7407;BME280;3745;56.964;24.128;2024-02-21T01:18:58;101262.47;;;0.58;100.00
7407;BME280;3745;56.964;24.128;2024-02-21T01:21:24;101313.59;;;0.94;100.00
7407;BME280;3745;56.964;24.128;2024-02-21T01:23:49;101253.31;;;0.59;100.00
7407;BME280;3745;56.964;24.128;2024-02-21T01:26:15;101347.22;;;1.28;100.00
7407;BME280;3745;56.964;24.128;2024-02-21T01:28:41;101235.53;;;0.52;100.00
7407;BME280;3745;56.964;24.128;2024-02-21T01:31:07;101354.94;;;1.18;100.00
7407;BME280;3745;56.964;24.128;2024-02-21T01:33:33;101309.31;;;0.91;100.00
7407;BME280;3745;56.964;24.128;2024-02-21T01:36:04;101346.00;;;1.22;100.00
7407;BME280;3745;56.964;24.128;2024-02-21T01:38:32;101344.78;;;1.15;100.00
7407;BME280;3745;56.964;24.128;2024-02-21T01:40:58;101312.22;;;0.99;100.00
7407;BME280;3745;56.964;24.128;2024-02-21T01:43:24;101291.22;;;0.81;100.00
7407;BME280;3745;56.964;24.128;2024-02-21T01:45:54;101337.88;;;1.11;100.00
7407;BME280;3745;56.964;24.128;2024-02-21T01:48:22;101175.03;;;0.13;100.00
7407;BME280;3745;56.964;24.128;2024-02-21T01:50:52;101232.69;;;0.46;100.00
7407;BME280;3745;56.964;24.128;2024-02-21T01:53:42;101333.91;;;1.00;100.00
7407;BME280;3745;56.964;24.128;2024-02-21T01:56:08;101339.75;;;1.00;100.00
7407;BME280;3745;56.964;24.128;2024-02-21T01:58:37;101335.81;;;1.04;100.00
7407;BME280;3745;56.964;24.128;2024-02-21T02:01:05;101336.75;;;1.06;100.00
7407;BME280;3745;56.964;24.128;2024-02-21T02:03:31;101220.47;;;0.36;100.00
7407;BME280;3745;56.964;24.128;2024-02-21T02:05:57;101323.75;;;0.97;100.00
7407;BME280;3745;56.964;24.128;2024-02-21T02:08:23;101305.19;;;0.92;100.00
7407;BME280;3745;56.964;24.128;2024-02-21T02:10:49;101230.97;;;0.45;100.00
7407;BME280;3745;56.964;24.128;2024-02-21T02:13:16;101264.81;;;0.70;100.00
7407;BME280;3745;56.964;24.128;2024-02-21T02:15:43;101328.91;;;1.00;100.00
7407;BME280;3745;56.964;24.128;2024-02-21T02:18:09;101208.78;;;0.35;100.00
7407;BME280;3745;56.964;24.128;2024-02-21T02:20:35;101296.91;;;0.93;100.00
7407;BME280;3745;56.964;24.128;2024-02-21T02:25:45;101332.72;;;1.08;100.00
7407;BME280;3745;56.964;24.128;2024-02-21T02:28:14;101086.06;;;-0.32;100.00
7407;BME280;3745;56.964;24.128;2024-02-21T02:30:40;101326.28;;;1.12;100.00
7407;BME280;3745;56.964;24.128;2024-02-21T02:33:06;101319.31;;;1.06;100.00
7407;BME280;3745;56.964;24.128;2024-02-21T02:35:32;101082.22;;;-0.27;100.00
7407;BME280;3745;56.964;24.128;2024-02-21T02:37:58;101269.41;;;0.77;100.00
7407;BME280;3745;56.964;24.128;2024-02-21T02:40:24;101284.72;;;0.83;100.00
7407;BME280;3745;56.964;24.128;2024-02-21T02:42:50;101312.34;;;1.00;100.00
7407;BME280;3745;56.964;24.128;2024-02-21T02:45:17;101310.72;;;1.01;100.00
7407;BME280;3745;56.964;24.128;2024-02-21T02:47:46;101311.88;;;0.93;100.00
7407;BME280;3745;56.964;24.128;2024-02-21T02:50:12;101284.53;;;0.80;100.00
7407;BME280;3745;56.964;24.128;2024-02-21T02:52:37;101312.22;;;0.99;100.00
7407;BME280;3745;56.964;24.128;2024-02-21T02:55:04;101283.66;;;0.79;100.00
7407;BME280;3745;56.964;24.128;2024-02-21T02:57:30;101081.47;;;-0.39;100.00
7407;BME280;3745;56.964;24.128;2024-02-21T02:59:56;101310.53;;;0.98;100.00
7407;BME280;3745;56.964;24.128;2024-02-21T03:02:22;101203.44;;;0.29;100.00
7407;BME280;3745;56.964;24.128;2024-02-21T03:04:47;101160.22;;;0.01;100.00
7407;BME280;3745;56.964;24.128;2024-02-21T03:07:14;101256.59;;;0.58;100.00
7407;BME280;3745;56.964;24.128;2024-02-21T03:09:40;101306.53;;;0.87;100.00
7407;BME280;3745;56.964;24.128;2024-02-21T03:12:08;101303.47;;;0.91;100.00
7407;BME280;3745;56.964;24.128;2024-02-21T03:14:34;101241.31;;;0.51;100.00
7407;BME280;3745;56.964;24.128;2024-02-21T03:17:00;101256.97;;;0.64;100.00
7407;BME280;3745;56.964;24.128;2024-02-21T03:19:26;101165.75;;;0.10;100.00
7407;BME280;3745;56.964;24.128;2024-02-21T03:21:52;101276.44;;;0.84;100.00
7407;BME280;3745;56.964;24.128;2024-02-21T03:24:21;101208.03;;;0.36;100.00
7407;BME280;3745;56.964;24.128;2024-02-21T03:26:47;101164.25;;;0.12;100.00
7407;BME280;3745;56.964;24.128;2024-02-21T03:29:15;101248.94;;;0.68;100.00
7407;BME280;3745;56.964;24.128;2024-02-21T03:31:41;101169.78;;;0.21;100.00
7407;BME280;3745;56.964;24.128;2024-02-21T03:34:07;101305.19;;;0.92;100.00
7407;BME280;3745;56.964;24.128;2024-02-21T03:36:33;101292.13;;;0.96;100.00
7407;BME280;3745;56.964;24.128;2024-02-21T03:38:59;101241.66;;;0.71;100.00
7407;BME280;3745;56.964;24.128;2024-02-21T03:41:25;101287.31;;;0.99;100.00
7407;BME280;3745;56.964;24.128;2024-02-21T03:43:50;101236.78;;;0.59;100.00
7407;BME280;3745;56.964;24.128;2024-02-21T03:46:16;101300.84;;;0.89;100.00
7407;BME280;3745;56.964;24.128;2024-02-21T03:48:41;101298.28;;;0.88;100.00
7407;BME280;3745;56.964;24.128;2024-02-21T03:51:07;101290.72;;;0.86;100.00
7407;BME280;3745;56.964;24.128;2024-02-21T03:53:33;101280.56;;;0.83;100.00
7407;BME280;3745;56.964;24.128;2024-02-21T03:56:02;101257.34;;;0.70;100.00
7407;BME280;3745;56.964;24.128;2024-02-21T03:58:32;101234.09;;;0.56;100.00
7407;BME280;3745;56.964;24.128;2024-02-21T04:01:00;101142.25;;;-0.08;100.00
7407;BME280;3745;56.964;24.128;2024-02-21T04:03:26;101115.88;;;-0.19;100.00
7407;BME280;3745;56.964;24.128;2024-02-21T04:05:52;101226.00;;;0.45;100.00
7407;BME280;3745;56.964;24.128;2024-02-21T04:08:18;101253.72;;;0.65;100.00
7407;BME280;3745;56.964;24.128;2024-02-21T04:10:43;101289.88;;;0.86;100.00
7407;BME280;3745;56.964;24.128;2024-02-21T04:13:09;101159.91;;;0.10;100.00
7407;BME280;3745;56.964;24.128;2024-02-21T04:15:35;101279.72;;;0.83;100.00
7407;BME280;3745;56.964;24.128;2024-02-21T04:18:01;101177.00;;;0.31;100.00
7407;BME280;3745;56.964;24.128;2024-02-21T04:20:28;101180.09;;;0.27;100.00
7407;BME280;3745;56.964;24.128;2024-02-21T04:22:54;101147.22;;;0.05;100.00
7407;BME280;3745;56.964;24.128;2024-02-21T04:25:20;101180.09;;;0.27;100.00
7407;BME280;3745;56.964;24.128;2024-02-21T04:27:46;101232.06;;;0.64;100.00
7407;BME280;3745;56.964;24.128;2024-02-21T04:30:12;101266.47;;;0.84;100.00
7407;BME280;3745;56.964;24.128;2024-02-21T04:32:38;101253.50;;;0.62;100.00
7407;BME280;3745;56.964;24.128;2024-02-21T04:35:04;101160.97;;;0.13;100.00
7407;BME280;3745;56.964;24.128;2024-02-21T04:37:30;101284.72;;;0.83;100.00
7407;BME280;3745;56.964;24.128;2024-02-21T04:39:56;101226.56;;;0.54;100.00
7407;BME280;3745;56.964;24.128;2024-02-21T04:42:22;101137.09;;;0.02;100.00
7407;BME280;3745;56.964;24.128;2024-02-21T04:44:47;101145.13;;;-0.02;100.00
7407;BME280;3745;56.964;24.128;2024-02-21T04:47:13;101211.44;;;0.51;100.00
7407;BME280;3745;56.964;24.128;2024-02-21T04:49:38;101273.19;;;0.85;100.00
7407;BME280;3745;56.964;24.128;2024-02-21T04:52:04;101273.38;;;0.88;100.00
7407;BME280;3745;56.964;24.128;2024-02-21T04:54:30;101270.50;;;0.95;100.00
7407;BME280;3745;56.964;24.128;2024-02-21T04:56:55;101121.16;;;0.13;100.00
7407;BME280;3745;56.964;24.128;2024-02-21T04:59:21;101117.00;;;-0.01;100.00
7407;BME280;3745;56.964;24.128;2024-02-21T05:01:47;101206.81;;;0.58;100.00
7407;BME280;3745;56.964;24.128;2024-02-21T05:04:12;101266.66;;;0.87;100.00
7407;BME280;3745;56.964;24.128;2024-02-21T05:06:39;101237.97;;;0.79;100.00
7407;BME280;3745;56.964;24.128;2024-02-21T05:09:05;101127.50;;;0.08;100.00
7407;BME280;3745;56.964;24.128;2024-02-21T05:11:31;101082.78;;;-0.18;100.00
7407;BME280;3745;56.964;24.128;2024-02-21T05:13:57;101244.84;;;0.83;100.00
7407;BME280;3745;56.964;24.128;2024-02-21T05:16:22;101238.16;;;0.82;100.00
7407;BME280;3745;56.964;24.128;2024-02-21T05:18:48;101248.47;;;0.88;100.00
7407;BME280;3745;56.964;24.128;2024-02-21T05:21:14;101224.38;;;0.74;100.00
7407;BME280;3745;56.964;24.128;2024-02-21T05:23:40;101235.19;;;0.74;100.00
7407;BME280;3745;56.964;24.128;2024-02-21T05:26:06;101249.66;;;0.80;100.00
7407;BME280;3745;56.964;24.128;2024-02-21T05:28:32;101251.53;;;0.84;100.00
7407;BME280;3745;56.964;24.128;2024-02-21T05:30:57;101115.63;;;0.04;100.00
7407;BME280;3745;56.964;24.128;2024-02-21T05:33:23;101155.06;;;0.39;100.00
7407;BME280;3745;56.964;24.128;2024-02-21T05:35:50;101246.75;;;0.87;100.00
7407;BME280;3745;56.964;24.128;2024-02-21T05:38:15;101193.75;;;0.62;100.00
7407;BME280;3745;56.964;24.128;2024-02-21T05:40:42;101166.06;;;0.42;100.00
7407;BME280;3745;56.964;24.128;2024-02-21T05:43:08;101126.31;;;0.16;100.00
7407;BME280;3745;56.964;24.128;2024-02-21T05:45:34;101121.72;;;0.22;100.00
7407;BME280;3745;56.964;24.128;2024-02-21T05:48:00;101237.13;;;0.93;100.00
7407;BME280;3745;56.964;24.128;2024-02-21T05:50:26;101154.00;;;0.48;100.00
7407;BME280;3745;56.964;24.128;2024-02-21T05:52:54;101243.50;;;1.02;100.00
7407;BME280;3745;56.964;24.128;2024-02-21T05:55:21;101243.84;;;0.94;100.00
7407;BME280;3745;56.964;24.128;2024-02-21T05:57:46;101151.16;;;0.42;100.00
7407;BME280;3745;56.964;24.128;2024-02-21T06:00:13;101074.78;;;0.00;100.00
7407;BME280;3745;56.964;24.128;2024-02-21T06:02:39;101242.47;;;0.99;100.00
7407;BME280;3745;56.964;24.128;2024-02-21T06:05:06;101247.44;;;0.99;100.00
7407;BME280;3745;56.964;24.128;2024-02-21T06:07:33;101247.91;;;1.06;100.00
7407;BME280;3745;56.964;24.128;2024-02-21T06:10:01;101237.66;;;1.02;100.00
7407;BME280;3745;56.964;24.128;2024-02-21T06:12:27;101216.84;;;0.87;100.00
7407;BME280;3745;56.964;24.128;2024-02-21T06:14:52;101215.31;;;0.89;100.00
7407;BME280;3745;56.964;24.128;2024-02-21T06:17:18;101249.91;;;1.12;100.00
7407;BME280;3745;56.964;24.128;2024-02-21T06:19:44;101163.13;;;0.63;100.00
7407;BME280;3745;56.964;24.128;2024-02-21T06:22:12;101256.97;;;1.19;100.00
7407;BME280;3745;56.964;24.128;2024-02-21T06:24:38;101212.41;;;0.96;100.00
7407;BME280;3745;56.964;24.128;2024-02-21T06:27:04;101159.28;;;0.68;100.00
7407;BME280;3745;56.964;24.128;2024-02-21T06:29:32;101252.50;;;1.28;100.00
7407;BME280;3745;56.964;24.128;2024-02-21T06:31:58;100974.19;;;-0.32;100.00
7407;BME280;3745;56.964;24.128;2024-02-21T06:34:26;100996.34;;;-0.22;100.00
7407;BME280;3745;56.964;24.128;2024-02-21T06:36:54;101096.75;;;0.48;100.00
7407;BME280;3745;56.964;24.128;2024-02-21T06:39:20;101104.22;;;0.48;100.00
7407;BME280;3745;56.964;24.128;2024-02-21T06:41:48;101183.19;;;1.08;100.00
7407;BME280;3745;56.964;24.128;2024-02-21T06:44:16;101239.97;;;1.41;100.00
7407;BME280;3745;56.964;24.128;2024-02-21T06:46:41;101199.88;;;1.09;100.00
7407;BME280;3745;56.964;24.128;2024-02-21T06:49:07;101070.09;;;0.33;100.00
7407;BME280;3745;56.964;24.128;2024-02-21T06:51:33;101189.41;;;1.15;100.00
7407;BME280;3745;56.964;24.128;2024-02-21T06:54:00;101239.69;;;1.51;100.00
7407;BME280;3745;56.964;24.128;2024-02-21T06:56:26;101088.34;;;0.61;100.00
7407;BME280;3745;56.964;24.128;2024-02-21T06:58:57;101234.88;;;1.54;100.00
7407;BME280;3745;56.964;24.128;2024-02-21T07:01:23;101189.44;;;1.29;100.00
7407;BME280;3745;56.964;24.128;2024-02-21T07:03:49;101231.03;;;1.59;100.00
7407;BME280;3745;56.964;24.128;2024-02-21T07:06:15;101119.28;;;0.94;100.00
7407;BME280;3745;56.964;24.128;2024-02-21T07:08:41;101128.03;;;1.02;100.00
7407;BME280;3745;56.964;24.128;2024-02-21T07:11:09;101054.16;;;0.59;100.00
7407;BME280;3745;56.964;24.128;2024-02-21T07:13:36;100992.84;;;0.31;100.00
7407;BME280;3745;56.964;24.128;2024-02-21T07:16:01;101127.03;;;1.13;100.00
7407;BME280;3745;56.964;24.128;2024-02-21T07:18:32;100987.38;;;0.37;100.00
7407;BME280;3745;56.964;24.128;2024-02-21T07:20:57;101131.84;;;1.25;100.00
7407;BME280;3745;56.964;24.128;2024-02-21T07:23:24;101136.53;;;1.20;100.00
7407;BME280;3745;56.964;24.128;2024-02-21T07:25:51;100953.88;;;0.17;100.00
7407;BME280;3745;56.964;24.128;2024-02-21T07:28:16;101063.78;;;0.82;100.00
7407;BME280;3745;56.964;24.128;2024-02-21T07:30:42;101134.59;;;1.29;100.00
7407;BME280;3745;56.964;24.128;2024-02-21T07:33:09;101101.94;;;1.10;100.00
7407;BME280;3745;56.964;24.128;2024-02-21T07:35:35;101124.63;;;1.29;100.00
7407;BME280;3745;56.964;24.128;2024-02-21T07:38:05;100999.19;;;0.55;100.00
7407;BME280;3745;56.964;24.128;2024-02-21T07:40:33;101058.09;;;0.99;100.00
7407;BME280;3745;56.964;24.128;2024-02-21T07:42:59;101053.66;;;0.93;100.00
7407;BME280;3745;56.964;24.128;2024-02-21T07:45:24;100999.38;;;0.59;100.00
7407;BME280;3745;56.964;24.128;2024-02-21T07:47:50;101215.69;;;1.83;100.00
7407;BME280;3745;56.964;24.128;2024-02-21T07:50:16;101061.56;;;1.01;100.00
7407;BME280;3745;56.964;24.128;2024-02-21T07:52:42;101037.84;;;0.93;100.00
7407;BME280;3745;56.964;24.128;2024-02-21T07:55:09;101066.53;;;1.16;100.00
7407;BME280;3745;56.964;24.128;2024-02-21T07:57:38;100959.03;;;0.49;100.00
7407;BME280;3745;56.964;24.128;2024-02-21T08:00:04;101222.00;;;2.07;100.00
7407;BME280;3745;56.964;24.128;2024-02-21T08:02:30;101227.66;;;2.19;100.00
7407;BME280;3745;56.964;24.128;2024-02-21T08:04:56;101225.59;;;2.27;100.00
7407;BME280;3745;56.964;24.128;2024-02-21T08:07:21;101220.75;;;2.30;100.00
7407;BME280;3745;56.964;24.128;2024-02-21T08:09:47;101228.47;;;2.34;100.00
7407;BME280;3745;56.964;24.128;2024-02-21T08:12:13;101082.06;;;1.57;100.00
7407;BME280;3745;56.964;24.128;2024-02-21T08:14:38;101093.56;;;1.70;100.00
7407;BME280;3745;56.964;24.128;2024-02-21T08:17:04;101013.81;;;1.24;100.00
7407;BME280;3745;56.964;24.128;2024-02-21T08:19:30;101116.81;;;1.85;100.00
7407;BME280;3745;56.964;24.128;2024-02-21T08:21:55;101226.47;;;2.59;100.00
7407;BME280;3745;56.964;24.128;2024-02-21T08:24:21;101225.25;;;2.67;100.00
7407;BME280;3745;56.964;24.128;2024-02-21T08:26:48;101121.16;;;2.03;100.00
7407;BME280;3745;56.964;24.128;2024-02-21T08:29:13;101192.59;;;2.48;100.00
7407;BME280;3745;56.964;24.128;2024-02-21T08:31:39;101190.44;;;2.54;100.00
7407;BME280;3745;56.964;24.128;2024-02-21T08:34:05;101159.34;;;2.49;100.00
7407;BME280;3745;56.964;24.128;2024-02-21T08:36:34;101076.63;;;1.95;100.00
7407;BME280;3745;56.964;24.128;2024-02-21T08:39:01;101036.34;;;1.56;100.00
7407;BME280;3745;56.964;24.128;2024-02-21T08:41:32;100979.69;;;1.38;100.00
7407;BME280;3745;56.964;24.128;2024-02-21T08:43:58;101111.41;;;2.08;100.00
7407;BME280;3745;56.964;24.128;2024-02-21T08:46:24;101073.75;;;1.56;100.00
7407;BME280;3745;56.964;24.128;2024-02-21T08:48:50;101205.72;;;2.44;100.00
7407;BME280;3745;56.964;24.128;2024-02-21T08:51:19;101197.59;;;2.48;100.00
7407;BME280;3745;56.964;24.128;2024-02-21T08:53:45;101149.97;;;2.29;100.00
7407;BME280;3745;56.964;24.128;2024-02-21T08:56:11;101169.47;;;2.52;100.00
7407;BME280;3745;56.964;24.128;2024-02-21T08:58:38;101153.66;;;2.52;100.00
7407;BME280;3745;56.964;24.128;2024-02-21T09:01:04;101070.09;;;1.97;100.00
7407;BME280;3745;56.964;24.128;2024-02-21T09:03:33;101194.00;;;2.76;100.00
7407;BME280;3745;56.964;24.128;2024-02-21T09:06:00;101069.31;;;2.14;100.00
7407;BME280;3745;56.964;24.128;2024-02-21T09:08:26;101140.63;;;2.57;100.00
7407;BME280;3745;56.964;24.128;2024-02-21T09:10:52;101140.53;;;2.56;100.00
7407;BME280;3745;56.964;24.128;2024-02-21T09:13:18;101098.16;;;2.25;100.00
7407;BME280;3745;56.964;24.128;2024-02-21T09:15:43;101137.34;;;2.42;100.00
7407;BME280;3745;56.964;24.128;2024-02-21T09:18:10;101133.59;;;2.34;100.00
7407;BME280;3745;56.964;24.128;2024-02-21T09:20:37;100961.38;;;1.37;100.00
7407;BME280;3745;56.964;24.128;2024-02-21T09:23:03;101120.81;;;2.12;100.00
7407;BME280;3745;56.964;24.128;2024-02-21T09:25:28;101030.56;;;1.41;100.00
7407;BME280;3745;56.964;24.128;2024-02-21T09:27:54;101011.97;;;1.36;100.00
7407;BME280;3745;56.964;24.128;2024-02-21T09:30:20;101194.16;;;2.46;100.00
7407;BME280;3745;56.964;24.128;2024-02-21T09:32:46;101151.53;;;2.27;100.00
7407;BME280;3745;56.964;24.128;2024-02-21T09:35:12;101169.41;;;2.35;100.00
7407;BME280;3745;56.964;24.128;2024-02-21T09:37:38;101169.09;;;2.29;100.00
7407;BME280;3745;56.964;24.128;2024-02-21T09:40:05;101190.72;;;2.44;100.00
7407;BME280;3745;56.964;24.128;2024-02-21T09:42:41;101186.66;;;2.30;100.00
7407;BME280;3745;56.964;24.128;2024-02-21T09:50:34;101098.69;;;2.03;100.00
7407;BME280;3745;56.964;24.128;2024-02-21T09:53:02;101093.03;;;2.06;100.00
7407;BME280;3745;56.964;24.128;2024-02-21T09:55:29;101178.41;;;2.63;100.00
7407;BME280;3745;56.964;24.128;2024-02-21T09:57:58;101126.72;;;2.46;100.00
7407;BME280;3745;56.964;24.128;2024-02-21T10:00:25;101167.91;;;2.87;100.00
7407;BME280;3745;56.964;24.128;2024-02-21T10:02:53;101145.13;;;2.81;100.00
7407;BME280;3745;56.964;24.128;2024-02-21T10:05:19;100964.94;;;1.91;100.00
7407;BME280;3745;56.964;24.128;2024-02-21T10:07:44;101135.41;;;3.03;100.00
7407;BME280;3745;56.964;24.128;2024-02-21T10:10:11;101115.69;;;3.09;100.00
7407;BME280;3745;56.964;24.128;2024-02-21T10:12:51;101102.44;;;3.10;100.00
7407;BME280;3745;56.964;24.128;2024-02-21T10:15:24;101046.31;;;2.53;100.00
7407;BME280;3745;56.964;24.128;2024-02-21T10:17:58;101065.66;;;2.73;100.00
7407;BME280;3745;56.964;24.128;2024-02-21T10:20:24;101011.38;;;2.53;100.00
7407;BME280;3745;56.964;24.128;2024-02-21T10:23:03;101046.41;;;2.89;100.00
7407;BME280;3745;56.964;24.128;2024-02-21T10:25:34;101122.81;;;3.35;100.00
7407;BME280;3745;56.964;24.128;2024-02-21T10:27:59;100993.25;;;2.57;100.00
7407;BME280;3745;56.964;24.128;2024-02-21T10:30:25;101078.44;;;3.13;100.00
7407;BME280;3745;56.964;24.128;2024-02-21T10:32:53;101126.03;;;3.50;100.00
7407;BME280;3745;56.964;24.128;2024-02-21T10:35:30;101128.00;;;3.57;100.00
7407;BME280;3745;56.964;24.128;2024-02-21T10:37:56;101115.28;;;3.70;100.00
7407;BME280;3745;56.964;24.128;2024-02-21T10:40:29;101120.16;;;3.67;100.00
7407;BME280;3745;56.964;24.128;2024-02-21T10:43:00;101111.88;;;3.68;100.00
7407;BME280;3745;56.964;24.128;2024-02-21T10:45:31;101108.69;;;3.72;100.00
7407;BME280;3745;56.964;24.128;2024-02-21T10:48:15;101100.41;;;3.73;100.00
7407;BME280;3745;56.964;24.128;2024-02-21T10:51:14;101109.84;;;3.79;100.00
7407;BME280;3745;56.964;24.128;2024-02-21T10:56:30;101097.53;;;3.83;100.00
7407;BME280;3745;56.964;24.128;2024-02-21T10:58:57;101033.41;;;3.31;100.00
7407;BME280;3745;56.964;24.128;2024-02-21T11:01:24;100994.78;;;3.07;100.00
7407;BME280;3745;56.964;24.128;2024-02-21T11:03:53;101016.34;;;3.05;100.00
7407;BME280;3745;56.964;24.128;2024-02-21T11:06:20;101086.47;;;3.61;100.00
7407;BME280;3745;56.964;24.128;2024-02-21T11:08:47;101031.47;;;3.43;100.00
7407;BME280;3745;56.964;24.128;2024-02-21T11:11:15;101088.94;;;3.78;100.00
7407;BME280;3745;56.964;24.128;2024-02-21T11:13:48;101079.34;;;3.68;100.00
7407;BME280;3745;56.964;24.128;2024-02-21T11:16:41;101082.19;;;3.58;100.00
7407;BME280;3745;56.964;24.128;2024-02-21T11:19:09;101090.41;;;3.73;100.00
7407;BME280;3745;56.964;24.128;2024-02-21T11:21:37;101075.53;;;3.76;100.00
7407;BME280;3745;56.964;24.128;2024-02-21T11:24:04;101044.53;;;3.55;100.00
7407;BME280;3745;56.964;24.128;2024-02-21T11:26:30;101034.25;;;3.49;100.00
7407;BME280;3745;56.964;24.128;2024-02-21T11:29:00;100986.25;;;3.21;100.00
7407;BME280;3745;56.964;24.128;2024-02-21T11:31:41;101018.81;;;3.40;100.00
7407;BME280;3745;56.964;24.128;2024-02-21T11:34:10;101065.22;;;3.70;100.00
7407;BME280;3745;56.964;24.128;2024-02-21T11:36:39;101052.75;;;3.90;100.00
7407;BME280;3745;56.964;24.128;2024-02-21T11:39:11;101007.50;;;3.66;100.00
7407;BME280;3745;56.964;24.128;2024-02-21T11:41:36;101047.75;;;3.90;100.00
7407;BME280;3745;56.964;24.128;2024-02-21T11:44:02;101050.00;;;4.03;100.00
7407;BME280;3745;56.964;24.128;2024-02-21T11:46:29;101014.00;;;3.81;100.00
7407;BME280;3745;56.964;24.128;2024-02-21T11:48:54;101040.75;;;3.82;100.00
7407;BME280;3745;56.964;24.128;2024-02-21T11:51:26;101043.59;;;3.90;100.00
7407;BME280;3745;56.964;24.128;2024-02-21T11:53:53;100979.28;;;3.70;100.00
7407;BME280;3745;56.964;24.128;2024-02-21T11:56:19;101000.69;;;3.82;100.00
7407;BME280;3745;56.964;24.128;2024-02-21T11:58:48;101023.97;;;3.99;100.00
7407;BME280;3745;56.964;24.128;2024-02-21T12:01:14;100985.94;;;3.89;100.00
7407;BME280;3745;56.964;24.128;2024-02-21T12:03:42;101002.88;;;3.94;100.00
7407;BME280;3745;56.964;24.128;2024-02-21T12:06:07;100857.56;;;3.13;100.00
7407;BME280;3745;56.964;24.128;2024-02-21T12:08:45;100988.66;;;3.93;100.00
7407;BME280;3745;56.964;24.128;2024-02-21T12:11:23;101002.94;;;4.15;100.00
7407;BME280;3745;56.964;24.128;2024-02-21T12:16:30;100957.75;;;3.93;100.00
7407;BME280;3745;56.964;24.128;2024-02-21T12:18:57;100991.72;;;4.07;100.00
7407;BME280;3745;56.964;24.128;2024-02-21T12:21:27;100953.22;;;3.84;100.00
7407;BME280;3745;56.964;24.128;2024-02-21T12:23:56;100978.19;;;4.02;100.00
7407;BME280;3745;56.964;24.128;2024-02-21T12:26:23;100983.19;;;4.02;100.00
7407;BME280;3745;56.964;24.128;2024-02-21T12:28:50;100981.75;;;3.88;100.00
7407;BME280;3745;56.964;24.128;2024-02-21T12:31:16;100943.78;;;3.78;100.00
7407;BME280;3745;56.964;24.128;2024-02-21T12:33:42;100942.09;;;3.77;100.00
7407;BME280;3745;56.964;24.128;2024-02-21T12:36:08;100974.38;;;3.91;100.00
7407;BME280;3745;56.964;24.128;2024-02-21T12:38:35;100981.47;;;3.81;100.00
7407;BME280;3745;56.964;24.128;2024-02-21T12:41:01;100950.38;;;3.76;100.00
7407;BME280;3745;56.964;24.128;2024-02-21T12:43:27;100963.03;;;3.79;100.00
7407;BME280;3745;56.964;24.128;2024-02-21T12:45:52;100837.03;;;3.01;100.00
7407;BME280;3745;56.964;24.128;2024-02-21T12:48:18;100955.19;;;3.91;100.00
7407;BME280;3745;56.964;24.128;2024-02-21T12:50:53;100903.34;;;3.69;100.00
7407;BME280;3745;56.964;24.128;2024-02-21T12:53:19;100941.22;;;3.96;100.00
7407;BME280;3745;56.964;24.128;2024-02-21T12:55:49;100952.88;;;3.96;100.00
7407;BME280;3745;56.964;24.128;2024-02-21T12:58:15;100887.56;;;3.51;100.00
7407;BME280;3745;56.964;24.128;2024-02-21T13:00:41;100954.59;;;3.97;100.00
7407;BME280;3745;56.964;24.128;2024-02-21T13:03:07;100812.44;;;3.10;100.00
7407;BME280;3745;56.964;24.128;2024-02-21T13:05:37;100929.31;;;3.91;100.00
7407;BME280;3745;56.964;24.128;2024-02-21T13:08:06;100819.00;;;3.08;100.00
7407;BME280;3745;56.964;24.128;2024-02-21T13:10:33;100786.13;;;2.80;100.00
7407;BME280;3745;56.964;24.128;2024-02-21T13:13:02;100675.34;;;2.23;100.00